sensor_id;sensor_type;location;lat;lon;timestamp;pressure;altitude;pressure_sealevel;temperature;humidity
9822;BME280;4950;46.042;14.472;2022-08-06T00:02:20;97749.16;;;25.64;61.13
9822;BME280;4950;46.042;14.472;2022-08-06T00:04:48;97747.84;;;25.61;61.76
9822;BME280;4950;46.042;14.472;2022-08-06T00:07:15;97745.44;;;25.65;61.52
9822;BME280;4950;46.042;14.472;2022-08-06T00:09:42;97754.47;;;25.69;61.53
9822;BME280;4950;46.042;14.472;2022-08-06T00:12:10;97754.03;;;25.51;62.07
9822;BME280;4950;46.042;14.472;2022-08-06T00:14:37;97755.38;;;25.49;62.18
9822;BME280;4950;46.042;14.472;2022-08-06T00:17:04;97755.91;;;25.51;61.72
9822;BME280;4950;46.042;14.472;2022-08-06T00:19:30;97754.53;;;25.53;61.52
9822;BME280;4950;46.042;14.472;2022-08-06T00:21:57;97758.25;;;25.52;61.92
9822;BME280;4950;46.042;14.472;2022-08-06T00:24:24;97746.38;;;25.39;61.97
9822;BME280;4950;46.042;14.472;2022-08-06T00:26:50;97750.94;;;25.18;63.18
9822;BME280;4950;46.042;14.472;2022-08-06T00:29:18;97757.88;;;25.19;63.09
9822;BME280;4950;46.042;14.472;2022-08-06T00:31:45;97759.47;;;25.26;62.41
9822;BME280;4950;46.042;14.472;2022-08-06T00:34:12;97752.81;;;25.28;62.57
9822;BME280;4950;46.042;14.472;2022-08-06T00:36:38;97746.13;;;25.31;62.58
9822;BME280;4950;46.042;14.472;2022-08-06T00:39:06;97748.53;;;25.32;63.44
9822;BME280;4950;46.042;14.472;2022-08-06T00:41:33;97750.41;;;25.32;63.67
9822;BME280;4950;46.042;14.472;2022-08-06T00:44:02;97756.78;;;25.31;63.74
9822;BME280;4950;46.042;14.472;2022-08-06T00:46:30;97759.41;;;25.36;63.60
9822;BME280;4950;46.042;14.472;2022-08-06T00:48:57;97756.75;;;25.36;63.00
9822;BME280;4950;46.042;14.472;2022-08-06T00:51:24;97749.63;;;25.26;63.47
9822;BME280;4950;46.042;14.472;2022-08-06T00:53:51;97750.44;;;25.21;63.62
9822;BME280;4950;46.042;14.472;2022-08-06T00:56:18;97747.22;;;25.25;62.76
9822;BME280;4950;46.042;14.472;2022-08-06T00:58:44;97751.47;;;25.20;62.92
9822;BME280;4950;46.042;14.472;2022-08-06T01:01:11;97744.59;;;25.19;62.66
9822;BME280;4950;46.042;14.472;2022-08-06T01:03:39;97741.16;;;25.03;63.25
9822;BME280;4950;46.042;14.472;2022-08-06T01:06:06;97737.47;;;24.99;62.80
9822;BME280;4950;46.042;14.472;2022-08-06T01:08:33;97738.28;;;25.00;63.59
9822;BME280;4950;46.042;14.472;2022-08-06T01:10:59;97742.00;;;25.04;63.66
9822;BME280;4950;46.042;14.472;2022-08-06T01:13:26;97748.88;;;25.05;64.04
9822;BME280;4950;46.042;14.472;2022-08-06T01:15:57;97741.16;;;25.03;64.62
9822;BME280;4950;46.042;14.472;2022-08-06T01:18:27;97749.97;;;25.04;64.44
9822;BME280;4950;46.042;14.472;2022-08-06T01:21:07;97741.47;;;24.97;64.19
9822;BME280;4950;46.042;14.472;2022-08-06T01:23:47;97738.03;;;24.96;64.86
9822;BME280;4950;46.042;14.472;2022-08-06T01:26:28;97738.28;;;24.95;64.32
9822;BME280;4950;46.042;14.472;2022-08-06T01:29:02;97741.47;;;24.97;64.96
9822;BME280;4950;46.042;14.472;2022-08-06T01:31:34;97743.59;;;24.95;65.19
9822;BME280;4950;46.042;14.472;2022-08-06T01:34:07;97742.00;;;24.99;64.89
9822;BME280;4950;46.042;14.472;2022-08-06T01:36:39;97743.06;;;24.98;64.88
9822;BME280;4950;46.042;14.472;2022-08-06T01:39:09;97736.94;;;24.97;64.90
9822;BME280;4950;46.042;14.472;2022-08-06T01:41:41;97738.28;;;24.95;64.94
9822;BME280;4950;46.042;14.472;2022-08-06T01:44:13;97741.47;;;24.92;64.75
9822;BME280;4950;46.042;14.472;2022-08-06T01:46:44;97743.09;;;24.93;64.89
9822;BME280;4950;46.042;14.472;2022-08-06T01:49:13;97738.84;;;24.87;64.84
9822;BME280;4950;46.042;14.472;2022-08-06T01:51:44;97737.00;;;24.82;64.98
9822;BME280;4950;46.042;14.472;2022-08-06T01:54:12;97735.16;;;24.77;65.08
9822;BME280;4950;46.042;14.472;2022-08-06T01:56:41;97742.06;;;24.73;65.91
9822;BME280;4950;46.042;14.472;2022-08-06T01:59:12;97740.47;;;24.72;65.80
9822;BME280;4950;46.042;14.472;2022-08-06T02:01:41;97743.16;;;24.62;66.48
9822;BME280;4950;46.042;14.472;2022-08-06T02:04:10;97741.06;;;24.59;65.79
9822;BME280;4950;46.042;14.472;2022-08-06T02:06:40;97739.19;;;24.54;66.53
9822;BME280;4950;46.042;14.472;2022-08-06T02:09:12;97752.72;;;24.48;66.59
9822;BME280;4950;46.042;14.472;2022-08-06T02:11:41;97740.50;;;24.47;66.45
9822;BME280;4950;46.042;14.472;2022-08-06T02:14:12;97745.28;;;24.44;66.60
9822;BME280;4950;46.042;14.472;2022-08-06T02:16:42;97742.66;;;24.39;66.80
9822;BME280;4950;46.042;14.472;2022-08-06T02:19:12;97736.81;;;24.37;66.96
9822;BME280;4950;46.042;14.472;2022-08-06T02:21:41;97743.44;;;24.30;66.58
9822;BME280;4950;46.042;14.472;2022-08-06T02:24:09;97746.34;;;24.23;66.92
9822;BME280;4950;46.042;14.472;2022-08-06T02:26:38;97746.34;;;24.23;66.72
9822;BME280;4950;46.042;14.472;2022-08-06T02:29:08;97745.84;;;24.00;67.58
9822;BME280;4950;46.042;14.472;2022-08-06T02:31:37;97747.41;;;23.86;68.31
9822;BME280;4950;46.042;14.472;2022-08-06T02:34:04;97748.72;;;23.78;68.28
9822;BME280;4950;46.042;14.472;2022-08-06T02:36:35;97747.41;;;23.86;68.56
9822;BME280;4950;46.042;14.472;2022-08-06T02:39:06;97752.44;;;23.88;68.42
9822;BME280;4950;46.042;14.472;2022-08-06T02:41:40;97751.41;;;23.89;68.06
9822;BME280;4950;46.042;14.472;2022-08-06T02:44:11;97748.22;;;23.87;68.26
9822;BME280;4950;46.042;14.472;2022-08-06T02:46:44;97753.22;;;23.88;68.55
9822;BME280;4950;46.042;14.472;2022-08-06T02:49:17;97748.22;;;23.87;68.27
9822;BME280;4950;46.042;14.472;2022-08-06T02:51:50;97744.22;;;23.94;67.79
9822;BME280;4950;46.042;14.472;2022-08-06T02:54:20;97744.72;;;23.76;69.31
9822;BME280;4950;46.042;14.472;2022-08-06T02:56:50;97747.63;;;23.74;69.05
9822;BME280;4950;46.042;14.472;2022-08-06T02:59:24;97741.03;;;23.77;69.17
9822;BME280;4950;46.042;14.472;2022-08-06T03:01:58;97745.50;;;23.76;69.05
9822;BME280;4950;46.042;14.472;2022-08-06T03:04:29;97746.06;;;23.78;69.27
9822;BME280;4950;46.042;14.472;2022-08-06T03:07:00;97747.38;;;23.76;68.83
9822;BME280;4950;46.042;14.472;2022-08-06T03:09:28;97747.34;;;23.71;69.29
9822;BME280;4950;46.042;14.472;2022-08-06T03:11:55;97748.16;;;23.66;68.88
9822;BME280;4950;46.042;14.472;2022-08-06T03:14:24;97747.34;;;23.55;69.15
9822;BME280;4950;46.042;14.472;2022-08-06T03:16:52;97745.47;;;23.45;70.00
9822;BME280;4950;46.042;14.472;2022-08-06T03:19:22;97753.88;;;23.37;69.84
9822;BME280;4950;46.042;14.472;2022-08-06T03:21:50;97747.78;;;23.26;70.15
9822;BME280;4950;46.042;14.472;2022-08-06T03:24:18;97747.78;;;23.26;70.24
9822;BME280;4950;46.042;14.472;2022-08-06T03:26:47;97755.72;;;23.32;69.97
9822;BME280;4950;46.042;14.472;2022-08-06T03:29:14;97759.13;;;23.22;71.03
9822;BME280;4950;46.042;14.472;2022-08-06T03:31:42;97752.50;;;23.14;71.12
9822;BME280;4950;46.042;14.472;2022-08-06T03:34:09;97747.19;;;23.09;71.58
9822;BME280;4950;46.042;14.472;2022-08-06T03:36:38;97747.75;;;23.16;72.12
9822;BME280;4950;46.042;14.472;2022-08-06T03:39:06;97750.16;;;23.23;71.44
9822;BME280;4950;46.042;14.472;2022-08-06T03:41:35;97744.88;;;23.28;71.97
9822;BME280;4950;46.042;14.472;2022-08-06T03:44:03;97748.84;;;23.31;71.41
9822;BME280;4950;46.042;14.472;2022-08-06T03:46:34;97747.00;;;23.36;71.39
9822;BME280;4950;46.042;14.472;2022-08-06T03:49:03;97750.72;;;23.40;71.88
9822;BME280;4950;46.042;14.472;2022-08-06T03:51:33;97756.28;;;23.39;71.63
9822;BME280;4950;46.042;14.472;2022-08-06T03:54:04;97750.19;;;23.43;71.33
9822;BME280;4950;46.042;14.472;2022-08-06T03:56:33;97758.44;;;23.47;70.75
9822;BME280;4950;46.042;14.472;2022-08-06T03:59:03;97759.50;;;23.46;71.22
9822;BME280;4950;46.042;14.472;2022-08-06T04:01:35;97755.50;;;23.38;70.48
9822;BME280;4950;46.042;14.472;2022-08-06T04:04:03;97760.22;;;23.26;71.19
9822;BME280;4950;46.042;14.472;2022-08-06T04:06:32;97756.50;;;23.27;70.44
9822;BME280;4950;46.042;14.472;2022-08-06T04:09:00;97759.69;;;23.29;70.77
9822;BME280;4950;46.042;14.472;2022-08-06T04:11:29;97768.88;;;23.06;71.45
9822;BME280;4950;46.042;14.472;2022-08-06T04:13:57;97775.13;;;22.90;72.46
9822;BME280;4950;46.042;14.472;2022-08-06T04:16:25;97783.63;;;22.97;72.50
9822;BME280;4950;46.042;14.472;2022-08-06T04:18:53;97788.16;;;23.01;72.16
9822;BME280;4950;46.042;14.472;2022-08-06T04:21:23;97789.56;;;23.09;72.17
9822;BME280;4950;46.042;14.472;2022-08-06T04:23:51;97786.66;;;23.11;72.01
9822;BME280;4950;46.042;14.472;2022-08-06T04:26:21;97791.41;;;23.14;71.40
9822;BME280;4950;46.042;14.472;2022-08-06T04:28:52;97796.78;;;23.24;71.55
9822;BME280;4950;46.042;14.472;2022-08-06T04:31:21;97801.25;;;23.23;71.21
9822;BME280;4950;46.042;14.472;2022-08-06T04:33:49;97798.06;;;23.21;71.82
9822;BME280;4950;46.042;14.472;2022-08-06T04:36:17;97800.72;;;23.21;71.82
9822;BME280;4950;46.042;14.472;2022-08-06T04:38:45;97809.22;;;23.23;71.46
9822;BME280;4950;46.042;14.472;2022-08-06T04:41:12;97808.16;;;23.24;71.41
9822;BME280;4950;46.042;14.472;2022-08-06T04:43:40;97808.72;;;23.26;71.42
9822;BME280;4950;46.042;14.472;2022-08-06T04:46:08;97811.34;;;23.32;71.07
9822;BME280;4950;46.042;14.472;2022-08-06T04:48:35;97808.16;;;23.30;70.81
9822;BME280;4950;46.042;14.472;2022-08-06T04:51:02;97810.03;;;23.29;71.20
9822;BME280;4950;46.042;14.472;2022-08-06T04:53:35;97811.88;;;23.29;71.50
9822;BME280;4950;46.042;14.472;2022-08-06T04:56:02;97817.72;;;23.31;71.45
9822;BME280;4950;46.042;14.472;2022-08-06T04:58:29;97821.16;;;23.31;71.59
9822;BME280;4950;46.042;14.472;2022-08-06T05:00:56;97830.97;;;23.31;71.37
9822;BME280;4950;46.042;14.472;2022-08-06T05:03:24;97828.88;;;23.33;71.62
9822;BME280;4950;46.042;14.472;2022-08-06T05:05:54;97830.19;;;23.35;72.09
9822;BME280;4950;46.042;14.472;2022-08-06T05:08:22;97824.38;;;23.38;72.28
9822;BME280;4950;46.042;14.472;2022-08-06T05:10:54;97832.06;;;23.35;72.03
9822;BME280;4950;46.042;14.472;2022-08-06T05:13:23;97833.91;;;23.34;72.54
9822;BME280;4950;46.042;14.472;2022-08-06T05:15:57;97835.53;;;23.40;72.17
9822;BME280;4950;46.042;14.472;2022-08-06T05:18:34;97838.22;;;23.45;72.10
9822;BME280;4950;46.042;14.472;2022-08-06T05:21:02;97835.03;;;23.49;72.05
9822;BME280;4950;46.042;14.472;2022-08-06T05:23:35;97837.13;;;23.46;71.87
9822;BME280;4950;46.042;14.472;2022-08-06T05:26:02;97833.69;;;23.46;71.69
9822;BME280;4950;46.042;14.472;2022-08-06T05:28:30;97834.47;;;23.46;71.51
9822;BME280;4950;46.042;14.472;2022-08-06T05:31:00;97831.84;;;23.46;71.26
9822;BME280;4950;46.042;14.472;2022-08-06T05:33:30;97852.75;;;23.43;71.28
9822;BME280;4950;46.042;14.472;2022-08-06T05:35:58;97849.84;;;23.44;71.00
9822;BME280;4950;46.042;14.472;2022-08-06T05:38:25;97849.06;;;23.49;70.85
9822;BME280;4950;46.042;14.472;2022-08-06T05:40:52;97860.47;;;23.50;71.62
9822;BME280;4950;46.042;14.472;2022-08-06T05:43:20;97853.84;;;23.52;70.70
9822;BME280;4950;46.042;14.472;2022-08-06T05:45:47;97852.03;;;23.58;70.24
9822;BME280;4950;46.042;14.472;2022-08-06T05:48:17;97855.75;;;23.62;69.92
9822;BME280;4950;46.042;14.472;2022-08-06T05:50:49;97850.44;;;23.62;69.90
9822;BME280;4950;46.042;14.472;2022-08-06T05:53:23;97859.16;;;23.52;69.91
9822;BME280;4950;46.042;14.472;2022-08-06T05:55:54;97867.06;;;23.47;69.64
9822;BME280;4950;46.042;14.472;2022-08-06T05:58:27;97861.03;;;23.52;69.71
9822;BME280;4950;46.042;14.472;2022-08-06T06:00:58;97857.59;;;23.56;69.04
9822;BME280;4950;46.042;14.472;2022-08-06T06:03:26;97853.88;;;23.62;68.48
9822;BME280;4950;46.042;14.472;2022-08-06T06:05:55;97849.13;;;23.64;68.41
9822;BME280;4950;46.042;14.472;2022-08-06T06:08:23;97856.81;;;23.66;68.76
9822;BME280;4950;46.042;14.472;2022-08-06T06:10:51;97869.81;;;23.68;68.72
9822;BME280;4950;46.042;14.472;2022-08-06T06:13:18;97866.63;;;23.71;68.59
9822;BME280;4950;46.042;14.472;2022-08-06T06:15:50;97867.22;;;23.78;69.43
9822;BME280;4950;46.042;14.472;2022-08-06T06:18:27;97861.41;;;23.86;69.10
9822;BME280;4950;46.042;14.472;2022-08-06T06:21:07;97871.25;;;23.91;68.83
9822;BME280;4950;46.042;14.472;2022-08-06T06:23:42;97871.25;;;23.96;69.18
9822;BME280;4950;46.042;14.472;2022-08-06T06:26:17;97873.69;;;24.02;68.68
9822;BME280;4950;46.042;14.472;2022-08-06T06:28:55;97878.97;;;24.08;68.27
9822;BME280;4950;46.042;14.472;2022-08-06T06:31:28;97881.66;;;24.13;68.76
9822;BME280;4950;46.042;14.472;2022-08-06T06:34:00;97884.06;;;24.14;68.60
9822;BME280;4950;46.042;14.472;2022-08-06T06:36:34;97887.75;;;24.13;68.05
9822;BME280;4950;46.042;14.472;2022-08-06T06:39:06;97887.53;;;24.20;68.07
9822;BME280;4950;46.042;14.472;2022-08-06T06:41:37;97885.38;;;24.27;67.59
9822;BME280;4950;46.042;14.472;2022-08-06T06:44:13;97889.63;;;24.33;67.89
9822;BME280;4950;46.042;14.472;2022-08-06T06:46:47;97881.97;;;24.42;67.48
9822;BME280;4950;46.042;14.472;2022-08-06T06:49:20;97879.88;;;24.49;67.86
9822;BME280;4950;46.042;14.472;2022-08-06T06:51:53;97890.25;;;24.56;67.26
9822;BME280;4950;46.042;14.472;2022-08-06T06:54:28;97883.59;;;24.63;66.97
9822;BME280;4950;46.042;14.472;2022-08-06T06:56:59;97879.63;;;24.71;66.88
9822;BME280;4950;46.042;14.472;2022-08-06T06:59:31;97888.66;;;24.75;66.59
9822;BME280;4950;46.042;14.472;2022-08-06T07:02:00;97876.97;;;24.81;65.75
9822;BME280;4950;46.042;14.472;2022-08-06T07:04:28;97879.34;;;24.88;65.82
9822;BME280;4950;46.042;14.472;2022-08-06T07:06:58;97886.78;;;24.96;65.44
9822;BME280;4950;46.042;14.472;2022-08-06T07:09:28;97880.13;;;25.04;65.06
9822;BME280;4950;46.042;14.472;2022-08-06T07:11:56;97885.94;;;25.11;64.20
9822;BME280;4950;46.042;14.472;2022-08-06T07:14:25;97879.81;;;25.21;64.45
9822;BME280;4950;46.042;14.472;2022-08-06T07:16:54;97882.50;;;25.31;64.00
9822;BME280;4950;46.042;14.472;2022-08-06T07:19:23;97874.75;;;25.35;63.28
9822;BME280;4950;46.042;14.472;2022-08-06T07:21:50;97873.69;;;25.41;62.97
9822;BME280;4950;46.042;14.472;2022-08-06T07:24:20;97875.53;;;25.51;63.45
9822;BME280;4950;46.042;14.472;2022-08-06T07:26:50;97875.22;;;25.63;62.94
9822;BME280;4950;46.042;14.472;2022-08-06T07:29:19;97885.50;;;25.85;62.37
9822;BME280;4950;46.042;14.472;2022-08-06T07:31:47;97882.53;;;25.96;61.40
9822;BME280;4950;46.042;14.472;2022-08-06T07:34:14;97883.56;;;26.06;61.70
9822;BME280;4950;46.042;14.472;2022-08-06T07:36:47;97884.28;;;26.16;61.26
9822;BME280;4950;46.042;14.472;2022-08-06T07:39:29;97891.91;;;26.28;61.32
9822;BME280;4950;46.042;14.472;2022-08-06T07:42:00;97887.34;;;26.34;61.34
9822;BME280;4950;46.042;14.472;2022-08-06T07:44:30;97892.94;;;26.37;61.14
9822;BME280;4950;46.042;14.472;2022-08-06T07:47:00;97893.44;;;26.45;60.85
9822;BME280;4950;46.042;14.472;2022-08-06T07:49:35;97895.44;;;26.63;60.02
9822;BME280;4950;46.042;14.472;2022-08-06T07:52:04;97897.47;;;26.76;60.15
9822;BME280;4950;46.042;14.472;2022-08-06T07:54:33;97901.06;;;26.91;59.37
9822;BME280;4950;46.042;14.472;2022-08-06T07:57:00;97896.72;;;27.00;59.05
9822;BME280;4950;46.042;14.472;2022-08-06T07:59:28;97906.72;;;27.13;58.32
9822;BME280;4950;46.042;14.472;2022-08-06T08:01:55;97902.94;;;27.25;57.42
9822;BME280;4950;46.042;14.472;2022-08-06T08:04:23;97903.59;;;27.35;56.45
9822;BME280;4950;46.042;14.472;2022-08-06T08:07:07;97899.19;;;27.50;56.15
9822;BME280;4950;46.042;14.472;2022-08-06T08:09:36;97896.44;;;27.55;56.24
9822;BME280;4950;46.042;14.472;2022-08-06T08:12:04;97895.91;;;27.58;56.06
9822;BME280;4950;46.042;14.472;2022-08-06T08:14:33;97893.16;;;27.63;56.04
9822;BME280;4950;46.042;14.472;2022-08-06T08:17:01;97897.56;;;27.73;55.41
9822;BME280;4950;46.042;14.472;2022-08-06T08:19:29;97899.03;;;27.84;55.45
9822;BME280;4950;46.042;14.472;2022-08-06T08:21:58;97897.91;;;27.90;54.91
9822;BME280;4950;46.042;14.472;2022-08-06T08:24:26;97901.38;;;28.10;54.71
9822;BME280;4950;46.042;14.472;2022-08-06T08:26:55;97904.28;;;28.32;52.97
9822;BME280;4950;46.042;14.472;2022-08-06T08:29:21;97901.75;;;28.41;53.25
9822;BME280;4950;46.042;14.472;2022-08-06T08:31:48;97902.19;;;28.48;51.99
9822;BME280;4950;46.042;14.472;2022-08-06T08:34:15;97901.25;;;28.58;51.89
9822;BME280;4950;46.042;14.472;2022-08-06T08:36:41;97907.06;;;28.79;50.57
9822;BME280;4950;46.042;14.472;2022-08-06T08:39:08;97903.44;;;28.89;50.90
9822;BME280;4950;46.042;14.472;2022-08-06T08:41:39;97909.19;;;28.96;50.80
9822;BME280;4950;46.042;14.472;2022-08-06T08:44:08;97904.16;;;29.08;50.77
9822;BME280;4950;46.042;14.472;2022-08-06T08:46:37;97911.13;;;29.23;50.17
9822;BME280;4950;46.042;14.472;2022-08-06T08:49:06;97907.47;;;29.33;48.68
9822;BME280;4950;46.042;14.472;2022-08-06T08:51:36;97907.41;;;29.38;50.17
9822;BME280;4950;46.042;14.472;2022-08-06T08:54:06;97904.81;;;29.47;48.09
9822;BME280;4950;46.042;14.472;2022-08-06T08:56:34;97907.69;;;29.64;48.57
9822;BME280;4950;46.042;14.472;2022-08-06T08:59:01;97910.50;;;29.73;48.51
9822;BME280;4950;46.042;14.472;2022-08-06T09:01:30;97905.50;;;29.80;48.01
9822;BME280;4950;46.042;14.472;2022-08-06T09:03:58;97905.63;;;29.89;47.44
9822;BME280;4950;46.042;14.472;2022-08-06T09:06:28;97909.97;;;29.99;48.07
9822;BME280;4950;46.042;14.472;2022-08-06T09:08:55;97911.94;;;30.07;47.82
9822;BME280;4950;46.042;14.472;2022-08-06T09:11:27;97910.09;;;30.30;46.41
9822;BME280;4950;46.042;14.472;2022-08-06T09:13:54;97916.19;;;30.44;46.73
9822;BME280;4950;46.042;14.472;2022-08-06T09:16:21;97916.16;;;30.58;46.21
9822;BME280;4950;46.042;14.472;2022-08-06T09:18:49;97919.69;;;30.67;46.50
9822;BME280;4950;46.042;14.472;2022-08-06T09:21:15;97924.31;;;30.76;44.66
9822;BME280;4950;46.042;14.472;2022-08-06T09:23:42;97921.28;;;30.91;43.77
9822;BME280;4950;46.042;14.472;2022-08-06T09:26:09;97930.22;;;31.09;43.48
9822;BME280;4950;46.042;14.472;2022-08-06T09:28:37;97924.44;;;31.16;42.94
9822;BME280;4950;46.042;14.472;2022-08-06T09:31:06;97927.78;;;31.30;42.51
9822;BME280;4950;46.042;14.472;2022-08-06T09:33:35;97932.06;;;31.31;42.14
9822;BME280;4950;46.042;14.472;2022-08-06T09:36:05;97928.63;;;31.39;42.81
9822;BME280;4950;46.042;14.472;2022-08-06T09:38:44;97932.47;;;31.47;42.60
9822;BME280;4950;46.042;14.472;2022-08-06T09:41:12;97921.44;;;31.48;42.30
9822;BME280;4950;46.042;14.472;2022-08-06T09:43:39;97922.91;;;31.63;41.99
9822;BME280;4950;46.042;14.472;2022-08-06T09:46:07;97922.28;;;31.75;42.76
9822;BME280;4950;46.042;14.472;2022-08-06T09:48:34;97925.31;;;31.82;41.29
9822;BME280;4950;46.042;14.472;2022-08-06T09:51:01;97929.59;;;31.83;41.28
9822;BME280;4950;46.042;14.472;2022-08-06T09:53:29;97919.78;;;31.79;41.42
9822;BME280;4950;46.042;14.472;2022-08-06T09:55:56;97914.25;;;31.75;41.66
9822;BME280;4950;46.042;14.472;2022-08-06T09:58:28;97911.88;;;31.74;41.95
9822;BME280;4950;46.042;14.472;2022-08-06T10:00:55;97918.34;;;31.81;42.23
9822;BME280;4950;46.042;14.472;2022-08-06T10:03:21;97928.81;;;32.00;40.59
9822;BME280;4950;46.042;14.472;2022-08-06T10:06:02;97925.25;;;32.05;40.30
9822;BME280;4950;46.042;14.472;2022-08-06T10:08:30;97920.50;;;32.02;40.81
9822;BME280;4950;46.042;14.472;2022-08-06T10:10:57;97926.78;;;31.97;41.16
9822;BME280;4950;46.042;14.472;2022-08-06T10:13:29;97932.47;;;31.96;41.56
9822;BME280;4950;46.042;14.472;2022-08-06T10:15:58;97925.50;;;31.95;41.23
9822;BME280;4950;46.042;14.472;2022-08-06T10:18:37;97917.81;;;32.02;41.41
9822;BME280;4950;46.042;14.472;2022-08-06T10:21:08;97910.56;;;32.11;41.14
9822;BME280;4950;46.042;14.472;2022-08-06T10:23:38;97913.88;;;32.17;40.42
9822;BME280;4950;46.042;14.472;2022-08-06T10:26:06;97916.22;;;32.18;39.87
9822;BME280;4950;46.042;14.472;2022-08-06T10:28:35;97911.50;;;32.15;40.03
9822;BME280;4950;46.042;14.472;2022-08-06T10:31:03;97916.41;;;32.13;39.43
9822;BME280;4950;46.042;14.472;2022-08-06T10:33:33;97917.78;;;32.11;39.78
9822;BME280;4950;46.042;14.472;2022-08-06T10:36:06;97916.53;;;32.08;39.88
9822;BME280;4950;46.042;14.472;2022-08-06T10:38:37;97914.16;;;32.06;39.88
9822;BME280;4950;46.042;14.472;2022-08-06T10:41:07;97914.50;;;32.05;40.41
9822;BME280;4950;46.042;14.472;2022-08-06T10:43:35;97918.78;;;32.15;40.52
9822;BME280;4950;46.042;14.472;2022-08-06T10:46:05;97918.44;;;32.16;40.44
9822;BME280;4950;46.042;14.472;2022-08-06T10:48:34;97917.50;;;32.12;40.00
9822;BME280;4950;46.042;14.472;2022-08-06T10:51:01;97909.44;;;32.12;40.10
9822;BME280;4950;46.042;14.472;2022-08-06T10:53:30;97893.78;;;32.14;40.30
9822;BME280;4950;46.042;14.472;2022-08-06T10:56:00;97891.09;;;32.14;40.29
9822;BME280;4950;46.042;14.472;2022-08-06T10:58:28;97907.53;;;32.13;40.56
9822;BME280;4950;46.042;14.472;2022-08-06T11:00:56;97901.53;;;32.16;41.34
9822;BME280;4950;46.042;14.472;2022-08-06T11:03:31;97904.06;;;32.21;41.32
9822;BME280;4950;46.042;14.472;2022-08-06T11:06:11;97904.25;;;32.24;39.96
9822;BME280;4950;46.042;14.472;2022-08-06T11:08:52;97901.06;;;32.31;40.24
9822;BME280;4950;46.042;14.472;2022-08-06T11:11:40;97889.19;;;32.32;40.09
9822;BME280;4950;46.042;14.472;2022-08-06T11:14:10;97891.28;;;32.26;39.96
9822;BME280;4950;46.042;14.472;2022-08-06T11:16:37;97892.06;;;32.27;40.02
9822;BME280;4950;46.042;14.472;2022-08-06T11:19:06;97893.00;;;32.22;40.53
9822;BME280;4950;46.042;14.472;2022-08-06T11:21:41;97890.94;;;32.19;40.57
9822;BME280;4950;46.042;14.472;2022-08-06T11:24:08;97894.91;;;32.22;40.05
9822;BME280;4950;46.042;14.472;2022-08-06T11:26:38;97899.19;;;32.23;40.07
9822;BME280;4950;46.042;14.472;2022-08-06T11:29:06;97925.41;;;32.17;40.02
9822;BME280;4950;46.042;14.472;2022-08-06T11:31:38;97934.25;;;32.09;43.20
9822;BME280;4950;46.042;14.472;2022-08-06T11:34:08;97934.00;;;31.79;47.01
9822;BME280;4950;46.042;14.472;2022-08-06T11:36:55;97909.41;;;30.61;48.75
9822;BME280;4950;46.042;14.472;2022-08-06T11:39:25;97920.38;;;29.31;53.15
9822;BME280;4950;46.042;14.472;2022-08-06T11:41:56;97984.53;;;27.74;55.84
9822;BME280;4950;46.042;14.472;2022-08-06T11:44:26;97985.06;;;26.83;60.37
9822;BME280;4950;46.042;14.472;2022-08-06T11:47:07;97996.16;;;25.91;60.51
9822;BME280;4950;46.042;14.472;2022-08-06T11:49:36;97997.50;;;25.73;64.42
9822;BME280;4950;46.042;14.472;2022-08-06T11:52:04;98014.84;;;25.55;68.65
9822;BME280;4950;46.042;14.472;2022-08-06T11:54:32;98020.94;;;25.55;74.91
9822;BME280;4950;46.042;14.472;2022-08-06T11:57:23;98014.81;;;25.70;76.86
9822;BME280;4950;46.042;14.472;2022-08-06T12:00:16;98012.41;;;25.69;78.09
9822;BME280;4950;46.042;14.472;2022-08-06T12:02:46;98002.81;;;25.78;78.39
9822;BME280;4950;46.042;14.472;2022-08-06T12:05:41;98003.59;;;25.84;78.92
9822;BME280;4950;46.042;14.472;2022-08-06T12:08:27;98016.09;;;25.93;79.58
9822;BME280;4950;46.042;14.472;2022-08-06T12:11:26;98024.06;;;25.98;78.78
9822;BME280;4950;46.042;14.472;2022-08-06T12:13:59;98018.75;;;25.93;78.44
9822;BME280;4950;46.042;14.472;2022-08-06T12:16:37;98011.06;;;25.92;79.15
9822;BME280;4950;46.042;14.472;2022-08-06T12:19:10;98009.97;;;25.93;77.94
9822;BME280;4950;46.042;14.472;2022-08-06T12:21:37;98013.16;;;25.90;78.99
9822;BME280;4950;46.042;14.472;2022-08-06T12:24:05;98011.56;;;25.99;80.30
9822;BME280;4950;46.042;14.472;2022-08-06T12:26:32;98014.72;;;26.11;81.63
9822;BME280;4950;46.042;14.472;2022-08-06T12:29:07;98010.69;;;26.19;79.74
9822;BME280;4950;46.042;14.472;2022-08-06T12:31:37;98025.56;;;26.25;79.25
9822;BME280;4950;46.042;14.472;2022-08-06T12:34:06;98021.00;;;26.36;80.17
9822;BME280;4950;46.042;14.472;2022-08-06T12:36:35;98028.97;;;26.41;78.49
9822;BME280;4950;46.042;14.472;2022-08-06T12:39:06;98023.06;;;26.44;77.63
9822;BME280;4950;46.042;14.472;2022-08-06T12:41:39;98013.50;;;26.48;76.80
9822;BME280;4950;46.042;14.472;2022-08-06T12:44:09;98011.31;;;26.61;77.59
9822;BME280;4950;46.042;14.472;2022-08-06T12:46:36;98006.44;;;26.73;77.24
9822;BME280;4950;46.042;14.472;2022-08-06T12:49:04;98007.75;;;26.75;78.27
9822;BME280;4950;46.042;14.472;2022-08-06T12:51:30;98006.09;;;26.85;77.44
9822;BME280;4950;46.042;14.472;2022-08-06T12:53:59;98007.59;;;27.01;77.77
9822;BME280;4950;46.042;14.472;2022-08-06T12:56:28;98010.13;;;27.16;77.23
9822;BME280;4950;46.042;14.472;2022-08-06T12:58:56;98013.00;;;27.30;76.27
9822;BME280;4950;46.042;14.472;2022-08-06T13:01:27;98013.06;;;27.49;76.43
9822;BME280;4950;46.042;14.472;2022-08-06T13:03:55;98014.53;;;27.66;75.11
9822;BME280;4950;46.042;14.472;2022-08-06T13:06:25;98020.22;;;27.83;73.50
9822;BME280;4950;46.042;14.472;2022-08-06T13:08:54;98024.31;;;28.00;72.26
9822;BME280;4950;46.042;14.472;2022-08-06T13:11:29;98027.09;;;28.13;70.41
9822;BME280;4950;46.042;14.472;2022-08-06T13:13:56;98019.41;;;28.31;70.67
9822;BME280;4950;46.042;14.472;2022-08-06T13:16:37;98022.09;;;28.50;68.93
9822;BME280;4950;46.042;14.472;2022-08-06T13:19:06;98019.25;;;28.65;68.42
9822;BME280;4950;46.042;14.472;2022-08-06T13:21:33;98020.09;;;28.80;66.62
9822;BME280;4950;46.042;14.472;2022-08-06T13:24:01;98014.03;;;28.93;66.30
9822;BME280;4950;46.042;14.472;2022-08-06T13:26:30;98010.53;;;29.11;65.39